Página principal
METAR-TAF:

METAR-TAF

Aeroportos :

Aeroporto Internacional do Kuwait

Kuwait, Kuwait

latitude: 29-13N, longitude: 047-59E, altura: 55 m

Observação actual do tempo

O boletim foi feito há 49 minutos, às 10:00 UTC
Vento 7 kt de norte
Temperatura 45°C
Humidade 10%
Pressão 1001 hPa
Visibilidade 10 km ou mais
sem nuvens abaixo de 1500 metros e sem cumulonimbus

METAR: OKBK 231000Z 35007KT CAVOK 45/06 Q1001 NOSIG

Hora: 13:49 (10:49 UTC)

Previsão

O boletim foi feito há 6 horas e 4 minutos, às 04:45 UTC
Previsão válida de 23 às 06 UTC a 24 às 12 UTC
Vento 8 kt de nor-noroeste com rajadas de 20 kt
Visibilidade: 7000 m
Céu limpo
Temporariamente
de 23 às 12 UTC a 23 às 21 UTC
Vento 12 kt de su-sudeste

TAF: OKBK 230445Z 2306/2412 33008G20KT 7000 SKC TEMPO 2312/2321 16012KT

Observações e previsões do tempo de mais de 4000 aeroportos (mensagens METAR e TAF).

As estações disponíveis são os pontos amarelos e vermelhos sobre o mapa.

Mova o rato sobre o mapa para ver o nome da estação.

Depois clique no ponto para visualizar as observações e previsões meteorológicas.

Para alterar o mapa : clique nos botões verdes com uma cruz preta para aumentar o zoom; no botão verde com uma pitada de zoom; ou nas setas verdes para mapas adjacentes.


METAR-TAF: